Wastedo, Minnesota
Current Conditions -  °F | °C
As of 7:34 PM on Tuesday 25 Nov 2014 (Local Time) from KSYN Reporting Station
Overcast Overcast  
Wind Chill: 17°   Ceiling: 6000
Heat Index: 26°   Visibility: 10mi
Dew Point: 17°   Wind: 8mph
Humidity: 68%   Direction: 160°SSE
Pressure: 30.01"   Gusts: NA
Location:  44.4763°N, 92.8054°W
Report Text: KSYN 260134Z AUTO 16007KT 10SM OVC060 M03/M09 A3001 RMK AO2 T10351086
Loading
Personal Weather Stations






























Interactive Weather Map New forecast layout! Learn more

10-Day Weather Forecast

Advertisements
Track Severe Weather on mobile